sensor_id;sensor_type;location;lat;lon;timestamp;P1;durP1;ratioP1;P2;durP2;ratioP2
27505;SDS011;14939;43.596;1.320;2022-11-03T00:01:39;2.10;;;1.40;;
27505;SDS011;14939;43.596;1.320;2022-11-03T00:04:18;3.92;;;1.70;;
27505;SDS011;14939;43.596;1.320;2022-11-03T00:06:45;3.20;;;1.38;;
27505;SDS011;14939;43.596;1.320;2022-11-03T00:09:13;3.65;;;1.45;;
27505;SDS011;14939;43.596;1.320;2022-11-03T00:11:40;3.28;;;1.65;;
27505;SDS011;14939;43.596;1.320;2022-11-03T00:14:07;3.95;;;1.45;;
27505;SDS011;14939;43.596;1.320;2022-11-03T00:16:36;3.72;;;1.40;;
27505;SDS011;14939;43.596;1.320;2022-11-03T00:19:03;6.60;;;1.60;;
27505;SDS011;14939;43.596;1.320;2022-11-03T00:21:29;4.75;;;1.50;;
27505;SDS011;14939;43.596;1.320;2022-11-03T00:23:55;3.85;;;1.48;;
27505;SDS011;14939;43.596;1.320;2022-11-03T00:26:25;4.53;;;1.50;;
27505;SDS011;14939;43.596;1.320;2022-11-03T00:28:52;2.35;;;1.20;;
27505;SDS011;14939;43.596;1.320;2022-11-03T00:31:23;3.10;;;1.30;;
27505;SDS011;14939;43.596;1.320;2022-11-03T00:33:50;3.78;;;1.30;;
27505;SDS011;14939;43.596;1.320;2022-11-03T00:36:18;4.20;;;1.50;;
27505;SDS011;14939;43.596;1.320;2022-11-03T00:38:45;3.33;;;1.50;;
27505;SDS011;14939;43.596;1.320;2022-11-03T00:41:11;2.17;;;1.40;;
27505;SDS011;14939;43.596;1.320;2022-11-03T00:43:38;2.95;;;1.65;;
27505;SDS011;14939;43.596;1.320;2022-11-03T00:46:04;6.47;;;1.40;;
27505;SDS011;14939;43.596;1.320;2022-11-03T00:48:31;3.17;;;1.20;;
27505;SDS011;14939;43.596;1.320;2022-11-03T00:53:37;3.83;;;1.25;;
27505;SDS011;14939;43.596;1.320;2022-11-03T00:56:05;3.97;;;1.30;;
27505;SDS011;14939;43.596;1.320;2022-11-03T00:58:33;3.20;;;1.58;;
27505;SDS011;14939;43.596;1.320;2022-11-03T01:01:06;4.40;;;1.40;;
27505;SDS011;14939;43.596;1.320;2022-11-03T01:03:40;3.17;;;1.40;;
27505;SDS011;14939;43.596;1.320;2022-11-03T01:06:27;4.82;;;1.35;;
27505;SDS011;14939;43.596;1.320;2022-11-03T01:09:11;3.00;;;1.35;;
27505;SDS011;14939;43.596;1.320;2022-11-03T01:11:37;2.97;;;1.05;;
27505;SDS011;14939;43.596;1.320;2022-11-03T01:14:10;3.83;;;1.40;;
27505;SDS011;14939;43.596;1.320;2022-11-03T01:16:37;4.75;;;1.58;;
27505;SDS011;14939;43.596;1.320;2022-11-03T01:19:03;7.65;;;2.15;;
27505;SDS011;14939;43.596;1.320;2022-11-03T01:21:29;3.15;;;1.30;;
27505;SDS011;14939;43.596;1.320;2022-11-03T01:23:55;3.55;;;1.65;;
27505;SDS011;14939;43.596;1.320;2022-11-03T01:26:21;5.10;;;1.60;;
27505;SDS011;14939;43.596;1.320;2022-11-03T01:28:47;5.30;;;1.77;;
27505;SDS011;14939;43.596;1.320;2022-11-03T01:31:15;5.63;;;1.70;;
27505;SDS011;14939;43.596;1.320;2022-11-03T01:33:42;5.32;;;1.70;;
27505;SDS011;14939;43.596;1.320;2022-11-03T01:36:09;6.57;;;1.67;;
27505;SDS011;14939;43.596;1.320;2022-11-03T01:38:36;6.18;;;1.73;;
27505;SDS011;14939;43.596;1.320;2022-11-03T01:41:03;5.13;;;1.55;;
27505;SDS011;14939;43.596;1.320;2022-11-03T01:43:30;4.28;;;1.50;;
27505;SDS011;14939;43.596;1.320;2022-11-03T01:46:39;4.65;;;1.35;;
27505;SDS011;14939;43.596;1.320;2022-11-03T01:48:46;2.33;;;1.40;;
27505;SDS011;14939;43.596;1.320;2022-11-03T01:51:23;6.47;;;1.70;;
27505;SDS011;14939;43.596;1.320;2022-11-03T01:53:51;4.65;;;1.67;;
27505;SDS011;14939;43.596;1.320;2022-11-03T01:56:19;5.60;;;1.60;;
27505;SDS011;14939;43.596;1.320;2022-11-03T01:58:46;5.50;;;1.63;;
27505;SDS011;14939;43.596;1.320;2022-11-03T02:01:15;4.57;;;1.55;;
27505;SDS011;14939;43.596;1.320;2022-11-03T02:03:43;4.38;;;1.60;;
27505;SDS011;14939;43.596;1.320;2022-11-03T02:06:11;5.53;;;1.83;;
27505;SDS011;14939;43.596;1.320;2022-11-03T02:08:48;7.57;;;2.13;;
27505;SDS011;14939;43.596;1.320;2022-11-03T02:11:20;5.43;;;1.80;;
27505;SDS011;14939;43.596;1.320;2022-11-03T02:14:09;6.70;;;2.00;;
27505;SDS011;14939;43.596;1.320;2022-11-03T02:16:39;7.15;;;1.75;;
27505;SDS011;14939;43.596;1.320;2022-11-03T02:19:11;6.90;;;2.10;;
27505;SDS011;14939;43.596;1.320;2022-11-03T02:24:50;5.53;;;1.85;;
27505;SDS011;14939;43.596;1.320;2022-11-03T02:27:17;7.88;;;2.08;;
27505;SDS011;14939;43.596;1.320;2022-11-03T02:29:44;6.57;;;1.98;;
27505;SDS011;14939;43.596;1.320;2022-11-03T02:32:20;5.45;;;2.00;;
27505;SDS011;14939;43.596;1.320;2022-11-03T02:35:11;5.70;;;2.30;;
27505;SDS011;14939;43.596;1.320;2022-11-03T02:37:42;5.75;;;2.30;;
27505;SDS011;14939;43.596;1.320;2022-11-03T02:40:13;8.65;;;2.22;;
27505;SDS011;14939;43.596;1.320;2022-11-03T02:42:42;5.45;;;2.45;;
27505;SDS011;14939;43.596;1.320;2022-11-03T02:45:11;5.35;;;2.17;;
27505;SDS011;14939;43.596;1.320;2022-11-03T02:47:41;9.02;;;2.33;;
27505;SDS011;14939;43.596;1.320;2022-11-03T02:50:07;7.55;;;2.10;;
27505;SDS011;14939;43.596;1.320;2022-11-03T02:55:50;7.82;;;2.60;;
27505;SDS011;14939;43.596;1.320;2022-11-03T03:00:21;7.05;;;2.42;;
27505;SDS011;14939;43.596;1.320;2022-11-03T03:02:51;7.30;;;2.63;;
27505;SDS011;14939;43.596;1.320;2022-11-03T03:05:24;7.30;;;2.47;;
27505;SDS011;14939;43.596;1.320;2022-11-03T03:07:55;9.20;;;2.42;;
27505;SDS011;14939;43.596;1.320;2022-11-03T03:10:26;7.40;;;2.33;;
27505;SDS011;14939;43.596;1.320;2022-11-03T03:12:55;8.70;;;2.40;;
27505;SDS011;14939;43.596;1.320;2022-11-03T03:15:35;8.27;;;2.55;;
27505;SDS011;14939;43.596;1.320;2022-11-03T03:18:48;9.52;;;2.60;;
27505;SDS011;14939;43.596;1.320;2022-11-03T03:21:41;11.40;;;2.75;;
27505;SDS011;14939;43.596;1.320;2022-11-03T03:24:34;8.73;;;2.70;;
27505;SDS011;14939;43.596;1.320;2022-11-03T03:27:12;9.25;;;2.70;;
27505;SDS011;14939;43.596;1.320;2022-11-03T03:29:44;12.13;;;3.20;;
27505;SDS011;14939;43.596;1.320;2022-11-03T03:32:19;9.70;;;3.25;;
27505;SDS011;14939;43.596;1.320;2022-11-03T03:34:48;7.70;;;2.65;;
27505;SDS011;14939;43.596;1.320;2022-11-03T03:37:16;10.57;;;3.08;;
27505;SDS011;14939;43.596;1.320;2022-11-03T03:39:44;7.40;;;2.90;;
27505;SDS011;14939;43.596;1.320;2022-11-03T03:42:16;11.23;;;3.03;;
27505;SDS011;14939;43.596;1.320;2022-11-03T03:44:44;7.40;;;2.95;;
27505;SDS011;14939;43.596;1.320;2022-11-03T03:47:13;12.95;;;3.25;;
27505;SDS011;14939;43.596;1.320;2022-11-03T03:49:43;14.43;;;3.40;;
27505;SDS011;14939;43.596;1.320;2022-11-03T03:52:08;10.20;;;3.33;;
27505;SDS011;14939;43.596;1.320;2022-11-03T03:54:34;7.95;;;3.15;;
27505;SDS011;14939;43.596;1.320;2022-11-03T03:57:02;7.93;;;3.15;;
27505;SDS011;14939;43.596;1.320;2022-11-03T03:59:29;9.60;;;3.25;;
27505;SDS011;14939;43.596;1.320;2022-11-03T04:01:55;9.68;;;3.20;;
27505;SDS011;14939;43.596;1.320;2022-11-03T04:04:21;9.10;;;3.50;;
27505;SDS011;14939;43.596;1.320;2022-11-03T04:06:47;11.18;;;3.65;;
27505;SDS011;14939;43.596;1.320;2022-11-03T04:09:13;11.55;;;3.70;;
27505;SDS011;14939;43.596;1.320;2022-11-03T04:11:38;10.23;;;3.22;;
27505;SDS011;14939;43.596;1.320;2022-11-03T04:14:23;9.73;;;3.50;;
27505;SDS011;14939;43.596;1.320;2022-11-03T04:17:15;10.82;;;3.30;;
27505;SDS011;14939;43.596;1.320;2022-11-03T04:20:03;13.00;;;3.45;;
27505;SDS011;14939;43.596;1.320;2022-11-03T04:22:52;9.95;;;3.38;;
27505;SDS011;14939;43.596;1.320;2022-11-03T04:25:17;6.15;;;3.28;;
27505;SDS011;14939;43.596;1.320;2022-11-03T04:27:43;8.68;;;3.55;;
27505;SDS011;14939;43.596;1.320;2022-11-03T04:30:13;7.97;;;3.13;;
27505;SDS011;14939;43.596;1.320;2022-11-03T04:32:40;8.20;;;3.47;;
27505;SDS011;14939;43.596;1.320;2022-11-03T04:35:16;10.23;;;3.70;;
27505;SDS011;14939;43.596;1.320;2022-11-03T04:37:51;8.65;;;3.53;;
27505;SDS011;14939;43.596;1.320;2022-11-03T04:40:21;9.30;;;3.40;;
27505;SDS011;14939;43.596;1.320;2022-11-03T04:42:47;8.52;;;3.55;;
27505;SDS011;14939;43.596;1.320;2022-11-03T04:45:13;8.73;;;3.75;;
27505;SDS011;14939;43.596;1.320;2022-11-03T04:47:41;10.60;;;3.45;;
27505;SDS011;14939;43.596;1.320;2022-11-03T04:50:10;12.18;;;3.50;;
27505;SDS011;14939;43.596;1.320;2022-11-03T04:52:42;9.18;;;3.20;;
27505;SDS011;14939;43.596;1.320;2022-11-03T04:55:10;6.35;;;3.20;;
27505;SDS011;14939;43.596;1.320;2022-11-03T04:57:39;11.80;;;3.40;;
27505;SDS011;14939;43.596;1.320;2022-11-03T05:00:05;9.02;;;3.53;;
27505;SDS011;14939;43.596;1.320;2022-11-03T05:02:31;11.43;;;3.60;;
27505;SDS011;14939;43.596;1.320;2022-11-03T05:04:57;8.82;;;3.65;;
27505;SDS011;14939;43.596;1.320;2022-11-03T05:09:57;12.35;;;3.63;;
27505;SDS011;14939;43.596;1.320;2022-11-03T05:12:24;8.85;;;3.65;;
27505;SDS011;14939;43.596;1.320;2022-11-03T05:14:50;9.52;;;3.53;;
27505;SDS011;14939;43.596;1.320;2022-11-03T05:17:26;9.93;;;4.00;;
27505;SDS011;14939;43.596;1.320;2022-11-03T05:19:54;12.05;;;4.15;;
27505;SDS011;14939;43.596;1.320;2022-11-03T05:22:32;8.55;;;3.97;;
27505;SDS011;14939;43.596;1.320;2022-11-03T05:25:02;7.35;;;3.50;;
27505;SDS011;14939;43.596;1.320;2022-11-03T05:27:48;11.13;;;3.92;;
27505;SDS011;14939;43.596;1.320;2022-11-03T05:30:13;10.00;;;4.18;;
27505;SDS011;14939;43.596;1.320;2022-11-03T05:32:39;10.05;;;4.15;;
27505;SDS011;14939;43.596;1.320;2022-11-03T05:35:07;11.63;;;4.10;;
27505;SDS011;14939;43.596;1.320;2022-11-03T05:37:46;9.38;;;4.20;;
27505;SDS011;14939;43.596;1.320;2022-11-03T05:40:22;8.00;;;3.60;;
27505;SDS011;14939;43.596;1.320;2022-11-03T05:42:55;8.65;;;3.53;;
27505;SDS011;14939;43.596;1.320;2022-11-03T05:45:33;11.88;;;4.10;;
27505;SDS011;14939;43.596;1.320;2022-11-03T05:48:00;8.77;;;3.97;;
27505;SDS011;14939;43.596;1.320;2022-11-03T05:50:27;9.07;;;3.97;;
27505;SDS011;14939;43.596;1.320;2022-11-03T05:52:57;12.05;;;4.00;;
27505;SDS011;14939;43.596;1.320;2022-11-03T05:55:32;10.40;;;4.30;;
27505;SDS011;14939;43.596;1.320;2022-11-03T06:00:56;13.43;;;4.30;;
27505;SDS011;14939;43.596;1.320;2022-11-03T06:03:23;10.52;;;4.35;;
27505;SDS011;14939;43.596;1.320;2022-11-03T06:05:52;10.95;;;4.45;;
27505;SDS011;14939;43.596;1.320;2022-11-03T06:08:19;12.27;;;4.50;;
27505;SDS011;14939;43.596;1.320;2022-11-03T06:10:52;10.32;;;4.22;;
27505;SDS011;14939;43.596;1.320;2022-11-03T06:13:26;13.13;;;4.82;;
27505;SDS011;14939;43.596;1.320;2022-11-03T06:19:00;10.68;;;4.80;;
27505;SDS011;14939;43.596;1.320;2022-11-03T06:21:39;11.50;;;4.07;;
27505;SDS011;14939;43.596;1.320;2022-11-03T06:24:07;11.63;;;4.68;;
27505;SDS011;14939;43.596;1.320;2022-11-03T06:26:35;14.45;;;4.85;;
27505;SDS011;14939;43.596;1.320;2022-11-03T06:29:01;14.13;;;4.53;;
27505;SDS011;14939;43.596;1.320;2022-11-03T06:31:27;11.48;;;4.43;;
27505;SDS011;14939;43.596;1.320;2022-11-03T06:33:58;10.15;;;4.38;;
27505;SDS011;14939;43.596;1.320;2022-11-03T06:36:26;12.32;;;4.57;;
27505;SDS011;14939;43.596;1.320;2022-11-03T06:38:59;12.32;;;4.43;;
27505;SDS011;14939;43.596;1.320;2022-11-03T06:41:31;16.02;;;4.80;;
27505;SDS011;14939;43.596;1.320;2022-11-03T06:44:00;12.38;;;4.90;;
27505;SDS011;14939;43.596;1.320;2022-11-03T06:46:27;10.85;;;4.30;;
27505;SDS011;14939;43.596;1.320;2022-11-03T06:48:56;10.38;;;4.53;;
27505;SDS011;14939;43.596;1.320;2022-11-03T06:51:27;11.65;;;4.45;;
27505;SDS011;14939;43.596;1.320;2022-11-03T06:53:56;10.10;;;4.10;;
27505;SDS011;14939;43.596;1.320;2022-11-03T06:56:24;13.43;;;4.55;;
27505;SDS011;14939;43.596;1.320;2022-11-03T06:58:53;13.07;;;4.38;;
27505;SDS011;14939;43.596;1.320;2022-11-03T07:03:51;14.15;;;4.50;;
27505;SDS011;14939;43.596;1.320;2022-11-03T07:06:22;16.20;;;4.90;;
27505;SDS011;14939;43.596;1.320;2022-11-03T07:08:53;9.88;;;4.43;;
27505;SDS011;14939;43.596;1.320;2022-11-03T07:11:52;15.77;;;4.97;;
27505;SDS011;14939;43.596;1.320;2022-11-03T07:14:30;15.50;;;4.75;;
27505;SDS011;14939;43.596;1.320;2022-11-03T07:21:56;12.60;;;4.60;;
27505;SDS011;14939;43.596;1.320;2022-11-03T07:24:23;12.82;;;4.68;;
27505;SDS011;14939;43.596;1.320;2022-11-03T07:29:56;8.90;;;4.40;;
27505;SDS011;14939;43.596;1.320;2022-11-03T07:32:24;9.95;;;4.15;;
27505;SDS011;14939;43.596;1.320;2022-11-03T07:35:01;14.60;;;4.35;;
27505;SDS011;14939;43.596;1.320;2022-11-03T07:37:33;18.05;;;4.82;;
27505;SDS011;14939;43.596;1.320;2022-11-03T07:39:59;11.45;;;4.30;;
27505;SDS011;14939;43.596;1.320;2022-11-03T07:42:25;12.20;;;4.30;;
27505;SDS011;14939;43.596;1.320;2022-11-03T07:44:52;13.68;;;4.53;;
27505;SDS011;14939;43.596;1.320;2022-11-03T07:47:23;8.02;;;4.18;;
27505;SDS011;14939;43.596;1.320;2022-11-03T07:49:51;15.15;;;4.97;;
27505;SDS011;14939;43.596;1.320;2022-11-03T07:52:20;8.90;;;4.10;;
27505;SDS011;14939;43.596;1.320;2022-11-03T07:54:48;11.80;;;4.15;;
27505;SDS011;14939;43.596;1.320;2022-11-03T07:57:23;13.25;;;4.13;;
27505;SDS011;14939;43.596;1.320;2022-11-03T08:00:02;17.05;;;4.45;;
27505;SDS011;14939;43.596;1.320;2022-11-03T08:05:11;8.93;;;4.60;;
27505;SDS011;14939;43.596;1.320;2022-11-03T08:07:37;9.70;;;4.00;;
27505;SDS011;14939;43.596;1.320;2022-11-03T08:10:03;14.10;;;4.50;;
27505;SDS011;14939;43.596;1.320;2022-11-03T08:12:31;9.85;;;4.32;;
27505;SDS011;14939;43.596;1.320;2022-11-03T08:14:56;13.02;;;4.18;;
27505;SDS011;14939;43.596;1.320;2022-11-03T08:17:22;11.50;;;4.20;;
27505;SDS011;14939;43.596;1.320;2022-11-03T08:19:48;13.15;;;4.25;;
27505;SDS011;14939;43.596;1.320;2022-11-03T08:22:13;11.30;;;4.63;;
27505;SDS011;14939;43.596;1.320;2022-11-03T08:24:39;10.80;;;4.18;;
27505;SDS011;14939;43.596;1.320;2022-11-03T08:27:05;11.35;;;4.40;;
27505;SDS011;14939;43.596;1.320;2022-11-03T08:29:30;12.30;;;4.00;;
27505;SDS011;14939;43.596;1.320;2022-11-03T08:31:56;11.20;;;4.30;;
27505;SDS011;14939;43.596;1.320;2022-11-03T08:34:22;14.88;;;4.45;;
27505;SDS011;14939;43.596;1.320;2022-11-03T08:36:47;10.18;;;4.00;;
27505;SDS011;14939;43.596;1.320;2022-11-03T08:39:13;12.05;;;4.35;;
27505;SDS011;14939;43.596;1.320;2022-11-03T08:41:38;12.35;;;4.25;;
27505;SDS011;14939;43.596;1.320;2022-11-03T08:44:04;10.85;;;4.40;;
27505;SDS011;14939;43.596;1.320;2022-11-03T08:46:30;8.77;;;4.47;;
27505;SDS011;14939;43.596;1.320;2022-11-03T08:48:56;12.80;;;4.10;;
27505;SDS011;14939;43.596;1.320;2022-11-03T08:51:22;8.68;;;3.97;;
27505;SDS011;14939;43.596;1.320;2022-11-03T08:53:48;11.05;;;4.25;;
27505;SDS011;14939;43.596;1.320;2022-11-03T08:56:18;10.93;;;4.28;;
27505;SDS011;14939;43.596;1.320;2022-11-03T08:58:44;15.98;;;4.50;;
27505;SDS011;14939;43.596;1.320;2022-11-03T09:01:13;37.33;;;5.40;;
27505;SDS011;14939;43.596;1.320;2022-11-03T09:03:39;13.80;;;4.35;;
27505;SDS011;14939;43.596;1.320;2022-11-03T09:06:05;12.65;;;4.50;;
27505;SDS011;14939;43.596;1.320;2022-11-03T09:08:31;14.02;;;4.53;;
27505;SDS011;14939;43.596;1.320;2022-11-03T09:10:56;17.17;;;3.97;;
27505;SDS011;14939;43.596;1.320;2022-11-03T09:13:22;13.68;;;4.75;;
27505;SDS011;14939;43.596;1.320;2022-11-03T09:15:48;13.05;;;4.35;;
27505;SDS011;14939;43.596;1.320;2022-11-03T09:18:13;8.10;;;3.83;;
27505;SDS011;14939;43.596;1.320;2022-11-03T09:20:40;10.20;;;3.72;;
27505;SDS011;14939;43.596;1.320;2022-11-03T09:23:05;21.40;;;4.30;;
27505;SDS011;14939;43.596;1.320;2022-11-03T09:25:31;14.60;;;4.03;;
27505;SDS011;14939;43.596;1.320;2022-11-03T09:27:56;9.05;;;3.90;;
27505;SDS011;14939;43.596;1.320;2022-11-03T09:30:22;9.73;;;4.20;;
27505;SDS011;14939;43.596;1.320;2022-11-03T09:32:48;12.18;;;4.45;;
27505;SDS011;14939;43.596;1.320;2022-11-03T09:35:13;10.10;;;3.90;;
27505;SDS011;14939;43.596;1.320;2022-11-03T09:37:41;11.48;;;4.00;;
27505;SDS011;14939;43.596;1.320;2022-11-03T09:40:08;14.00;;;4.45;;
27505;SDS011;14939;43.596;1.320;2022-11-03T09:42:35;14.02;;;4.43;;
27505;SDS011;14939;43.596;1.320;2022-11-03T09:45:03;13.10;;;4.72;;
27505;SDS011;14939;43.596;1.320;2022-11-03T09:47:32;11.85;;;4.07;;
27505;SDS011;14939;43.596;1.320;2022-11-03T09:50:01;9.55;;;3.90;;
27505;SDS011;14939;43.596;1.320;2022-11-03T09:52:27;10.82;;;4.25;;
27505;SDS011;14939;43.596;1.320;2022-11-03T09:54:53;8.25;;;3.80;;
27505;SDS011;14939;43.596;1.320;2022-11-03T09:57:19;8.27;;;3.95;;
27505;SDS011;14939;43.596;1.320;2022-11-03T09:59:46;12.40;;;3.92;;
27505;SDS011;14939;43.596;1.320;2022-11-03T10:02:24;10.48;;;4.07;;
27505;SDS011;14939;43.596;1.320;2022-11-03T10:04:58;9.02;;;4.05;;
27505;SDS011;14939;43.596;1.320;2022-11-03T10:07:25;14.25;;;4.72;;
27505;SDS011;14939;43.596;1.320;2022-11-03T10:09:54;11.20;;;4.90;;
27505;SDS011;14939;43.596;1.320;2022-11-03T10:12:22;11.63;;;4.35;;
27505;SDS011;14939;43.596;1.320;2022-11-03T10:14:49;12.55;;;4.63;;
27505;SDS011;14939;43.596;1.320;2022-11-03T10:17:16;16.20;;;5.18;;
27505;SDS011;14939;43.596;1.320;2022-11-03T10:19:48;12.10;;;4.90;;
27505;SDS011;14939;43.596;1.320;2022-11-03T10:22:16;13.07;;;4.32;;
27505;SDS011;14939;43.596;1.320;2022-11-03T10:24:45;11.95;;;4.70;;
27505;SDS011;14939;43.596;1.320;2022-11-03T10:27:21;11.95;;;3.92;;
27505;SDS011;14939;43.596;1.320;2022-11-03T10:32:47;11.52;;;4.40;;
27505;SDS011;14939;43.596;1.320;2022-11-03T10:35:31;14.27;;;4.60;;
27505;SDS011;14939;43.596;1.320;2022-11-03T10:43:43;10.95;;;4.70;;
27505;SDS011;14939;43.596;1.320;2022-11-03T10:46:23;12.70;;;4.50;;
27505;SDS011;14939;43.596;1.320;2022-11-03T10:49:00;12.18;;;4.50;;
27505;SDS011;14939;43.596;1.320;2022-11-03T10:51:37;14.18;;;4.57;;
27505;SDS011;14939;43.596;1.320;2022-11-03T10:54:04;8.35;;;4.50;;
27505;SDS011;14939;43.596;1.320;2022-11-03T10:56:34;11.52;;;4.80;;
27505;SDS011;14939;43.596;1.320;2022-11-03T10:59:00;10.55;;;4.90;;
27505;SDS011;14939;43.596;1.320;2022-11-03T11:01:26;13.27;;;5.40;;
27505;SDS011;14939;43.596;1.320;2022-11-03T11:03:52;15.10;;;5.72;;
27505;SDS011;14939;43.596;1.320;2022-11-03T11:06:27;11.73;;;5.32;;
27505;SDS011;14939;43.596;1.320;2022-11-03T11:09:01;13.27;;;4.97;;
27505;SDS011;14939;43.596;1.320;2022-11-03T11:11:29;13.00;;;4.90;;
27505;SDS011;14939;43.596;1.320;2022-11-03T11:19:18;12.13;;;4.80;;
27505;SDS011;14939;43.596;1.320;2022-11-03T11:24:12;14.25;;;5.18;;
27505;SDS011;14939;43.596;1.320;2022-11-03T11:26:38;11.77;;;4.95;;
27505;SDS011;14939;43.596;1.320;2022-11-03T11:44:46;12.38;;;5.30;;
27505;SDS011;14939;43.596;1.320;2022-11-03T11:47:19;13.30;;;5.72;;
27505;SDS011;14939;43.596;1.320;2022-11-03T11:49:46;14.57;;;5.30;;
27505;SDS011;14939;43.596;1.320;2022-11-03T11:52:12;10.70;;;4.80;;
27505;SDS011;14939;43.596;1.320;2022-11-03T11:54:40;12.63;;;4.82;;
27505;SDS011;14939;43.596;1.320;2022-11-03T11:57:16;9.63;;;5.20;;
27505;SDS011;14939;43.596;1.320;2022-11-03T11:59:44;14.25;;;5.03;;
27505;SDS011;14939;43.596;1.320;2022-11-03T12:02:17;15.23;;;5.22;;
27505;SDS011;14939;43.596;1.320;2022-11-03T12:04:47;15.85;;;5.18;;
27505;SDS011;14939;43.596;1.320;2022-11-03T12:07:39;11.82;;;5.30;;
27505;SDS011;14939;43.596;1.320;2022-11-03T12:10:08;10.13;;;5.57;;
27505;SDS011;14939;43.596;1.320;2022-11-03T12:12:38;11.00;;;5.07;;
27505;SDS011;14939;43.596;1.320;2022-11-03T12:15:04;9.90;;;5.10;;
27505;SDS011;14939;43.596;1.320;2022-11-03T12:17:30;10.85;;;4.95;;
27505;SDS011;14939;43.596;1.320;2022-11-03T12:19:57;15.65;;;5.45;;
27505;SDS011;14939;43.596;1.320;2022-11-03T12:27:38;9.85;;;4.90;;
27505;SDS011;14939;43.596;1.320;2022-11-03T12:30:04;13.40;;;5.18;;
27505;SDS011;14939;43.596;1.320;2022-11-03T12:32:33;9.32;;;4.63;;
27505;SDS011;14939;43.596;1.320;2022-11-03T12:34:58;15.10;;;5.50;;
27505;SDS011;14939;43.596;1.320;2022-11-03T12:37:24;8.65;;;4.13;;
27505;SDS011;14939;43.596;1.320;2022-11-03T12:39:50;10.30;;;4.45;;
27505;SDS011;14939;43.596;1.320;2022-11-03T12:42:15;9.02;;;4.22;;
27505;SDS011;14939;43.596;1.320;2022-11-03T12:44:41;9.55;;;4.18;;
27505;SDS011;14939;43.596;1.320;2022-11-03T12:47:06;10.27;;;4.30;;
27505;SDS011;14939;43.596;1.320;2022-11-03T12:49:32;11.70;;;4.30;;
27505;SDS011;14939;43.596;1.320;2022-11-03T12:51:58;11.25;;;4.47;;
27505;SDS011;14939;43.596;1.320;2022-11-03T12:54:30;8.67;;;4.20;;
27505;SDS011;14939;43.596;1.320;2022-11-03T12:56:57;11.63;;;4.28;;
27505;SDS011;14939;43.596;1.320;2022-11-03T12:59:23;9.85;;;4.20;;
27505;SDS011;14939;43.596;1.320;2022-11-03T13:01:48;9.98;;;4.20;;
27505;SDS011;14939;43.596;1.320;2022-11-03T13:04:14;10.10;;;4.43;;
27505;SDS011;14939;43.596;1.320;2022-11-03T13:06:40;11.90;;;4.35;;
27505;SDS011;14939;43.596;1.320;2022-11-03T13:09:06;9.43;;;3.95;;
27505;SDS011;14939;43.596;1.320;2022-11-03T13:11:31;7.32;;;3.72;;
27505;SDS011;14939;43.596;1.320;2022-11-03T13:14:15;11.18;;;3.90;;
27505;SDS011;14939;43.596;1.320;2022-11-03T13:16:41;11.90;;;4.15;;
27505;SDS011;14939;43.596;1.320;2022-11-03T13:19:07;10.10;;;3.80;;
27505;SDS011;14939;43.596;1.320;2022-11-03T13:21:34;11.63;;;4.15;;
27505;SDS011;14939;43.596;1.320;2022-11-03T13:24:00;10.95;;;3.95;;
27505;SDS011;14939;43.596;1.320;2022-11-03T13:26:26;11.63;;;4.13;;
27505;SDS011;14939;43.596;1.320;2022-11-03T13:28:51;13.68;;;4.00;;
27505;SDS011;14939;43.596;1.320;2022-11-03T13:31:17;9.60;;;3.78;;
27505;SDS011;14939;43.596;1.320;2022-11-03T13:33:43;11.60;;;3.83;;
27505;SDS011;14939;43.596;1.320;2022-11-03T13:36:08;9.88;;;3.70;;
27505;SDS011;14939;43.596;1.320;2022-11-03T13:38:34;10.02;;;3.72;;
27505;SDS011;14939;43.596;1.320;2022-11-03T13:41:00;7.63;;;3.65;;
27505;SDS011;14939;43.596;1.320;2022-11-03T13:43:25;7.95;;;3.78;;
27505;SDS011;14939;43.596;1.320;2022-11-03T13:45:52;9.13;;;3.60;;
27505;SDS011;14939;43.596;1.320;2022-11-03T13:48:18;9.38;;;3.72;;
27505;SDS011;14939;43.596;1.320;2022-11-03T13:50:44;11.88;;;4.18;;
27505;SDS011;14939;43.596;1.320;2022-11-03T13:53:10;9.32;;;4.05;;
27505;SDS011;14939;43.596;1.320;2022-11-03T13:55:36;8.15;;;4.05;;
27505;SDS011;14939;43.596;1.320;2022-11-03T13:58:01;6.57;;;3.55;;
27505;SDS011;14939;43.596;1.320;2022-11-03T14:00:27;9.80;;;3.92;;
27505;SDS011;14939;43.596;1.320;2022-11-03T14:02:52;9.50;;;4.03;;
27505;SDS011;14939;43.596;1.320;2022-11-03T14:05:18;7.13;;;3.50;;
27505;SDS011;14939;43.596;1.320;2022-11-03T14:07:44;7.65;;;3.70;;
27505;SDS011;14939;43.596;1.320;2022-11-03T14:10:09;15.38;;;4.78;;
27505;SDS011;14939;43.596;1.320;2022-11-03T14:12:35;10.07;;;4.88;;
27505;SDS011;14939;43.596;1.320;2022-11-03T14:15:02;12.57;;;4.68;;
27505;SDS011;14939;43.596;1.320;2022-11-03T14:17:30;9.10;;;4.45;;
27505;SDS011;14939;43.596;1.320;2022-11-03T14:19:56;7.43;;;3.78;;
27505;SDS011;14939;43.596;1.320;2022-11-03T14:22:22;10.10;;;3.72;;
27505;SDS011;14939;43.596;1.320;2022-11-03T14:24:48;9.52;;;3.85;;
27505;SDS011;14939;43.596;1.320;2022-11-03T14:27:15;10.35;;;4.07;;
27505;SDS011;14939;43.596;1.320;2022-11-03T14:29:42;14.82;;;4.25;;
27505;SDS011;14939;43.596;1.320;2022-11-03T14:32:08;9.65;;;4.03;;
27505;SDS011;14939;43.596;1.320;2022-11-03T14:34:35;20.30;;;4.45;;
27505;SDS011;14939;43.596;1.320;2022-11-03T14:37:02;9.25;;;3.70;;
27505;SDS011;14939;43.596;1.320;2022-11-03T14:39:32;8.52;;;4.00;;
27505;SDS011;14939;43.596;1.320;2022-11-03T14:41:58;6.13;;;3.83;;
27505;SDS011;14939;43.596;1.320;2022-11-03T14:44:27;12.38;;;4.38;;
27505;SDS011;14939;43.596;1.320;2022-11-03T14:49:26;9.35;;;3.55;;
27505;SDS011;14939;43.596;1.320;2022-11-03T14:51:52;8.73;;;3.60;;
27505;SDS011;14939;43.596;1.320;2022-11-03T14:54:18;6.13;;;3.63;;
27505;SDS011;14939;43.596;1.320;2022-11-03T14:56:44;10.18;;;3.60;;
27505;SDS011;14939;43.596;1.320;2022-11-03T14:59:09;9.57;;;3.65;;
27505;SDS011;14939;43.596;1.320;2022-11-03T15:01:35;11.65;;;3.40;;
27505;SDS011;14939;43.596;1.320;2022-11-03T15:04:02;7.78;;;3.50;;
27505;SDS011;14939;43.596;1.320;2022-11-03T15:06:28;11.55;;;3.40;;
27505;SDS011;14939;43.596;1.320;2022-11-03T15:08:54;6.60;;;3.17;;
27505;SDS011;14939;43.596;1.320;2022-11-03T15:11:20;7.57;;;3.47;;
27505;SDS011;14939;43.596;1.320;2022-11-03T15:13:45;5.55;;;3.28;;
27505;SDS011;14939;43.596;1.320;2022-11-03T15:16:11;16.58;;;3.35;;
27505;SDS011;14939;43.596;1.320;2022-11-03T15:18:36;8.80;;;3.72;;
27505;SDS011;14939;43.596;1.320;2022-11-03T15:21:02;8.63;;;3.53;;
27505;SDS011;14939;43.596;1.320;2022-11-03T15:23:28;8.73;;;3.30;;
27505;SDS011;14939;43.596;1.320;2022-11-03T15:25:54;7.32;;;2.75;;
27505;SDS011;14939;43.596;1.320;2022-11-03T15:28:20;10.02;;;2.47;;
27505;SDS011;14939;43.596;1.320;2022-11-03T15:30:46;6.28;;;1.45;;
27505;SDS011;14939;43.596;1.320;2022-11-03T15:33:15;4.63;;;1.23;;
27505;SDS011;14939;43.596;1.320;2022-11-03T15:35:40;5.65;;;1.00;;
27505;SDS011;14939;43.596;1.320;2022-11-03T15:38:06;13.60;;;1.73;;
27505;SDS011;14939;43.596;1.320;2022-11-03T15:40:31;3.58;;;1.30;;
27505;SDS011;14939;43.596;1.320;2022-11-03T15:42:57;11.88;;;1.77;;
27505;SDS011;14939;43.596;1.320;2022-11-03T15:45:23;7.63;;;1.70;;
27505;SDS011;14939;43.596;1.320;2022-11-03T15:47:49;3.83;;;1.48;;
27505;SDS011;14939;43.596;1.320;2022-11-03T15:50:15;7.03;;;1.35;;
27505;SDS011;14939;43.596;1.320;2022-11-03T15:52:41;5.40;;;1.52;;
27505;SDS011;14939;43.596;1.320;2022-11-03T15:55:07;4.82;;;1.40;;
27505;SDS011;14939;43.596;1.320;2022-11-03T15:57:34;4.70;;;1.77;;
27505;SDS011;14939;43.596;1.320;2022-11-03T16:00:00;6.28;;;1.05;;
27505;SDS011;14939;43.596;1.320;2022-11-03T16:02:27;2.90;;;0.98;;
27505;SDS011;14939;43.596;1.320;2022-11-03T16:04:53;2.33;;;0.90;;